EW6229 Weather Reports


Display with metric or nautical units.
time (UTC)temp
F
wind
direction
speed
MPH
gust
MPH
rain 1hr
in
rain 24hr
in
rain mn
in
humidity
%
barometer
mb
20171215175911 27 337 1.0 2.0 0.00 0.01 0.01 95 999.6
20171215173911 27 360 1.0 2.0 0.00 0.01 0.01 95 1000.6
20171215172911 27 45 3.0 4.0 0.00 0.01 0.01 95 1000.6
20171215171911 27 315 3.0 4.0 0.00 0.01 0.01 95 1000.6
20171215164911 27 337 5.0 6.0 0.00 0.01 0.01 95 999.6
20171215163911 27 225 3.0 6.0 0.00 0.01 0.01 95 1000.6
20171215161910 27 180 2.0 6.0 0.00 0.01 0.01 95 1000.6
20171215160910 28 315 4.0 8.0 0.00 0.01 0.01 95 1000.6
20171215154910 28 247 5.0 10.0 0.00 0.01 0.01 95 999.6
20171215153910 29 225 6.0 8.0 0.00 0.01 0.01 94 999.6
20171215150910 30 337 0.0 2.0 0.00 0.01 0.01 93 998.6
20171215145910 30 315 1.0 2.0 0.00 0.01 0.01 93 998.6
20171215140910 31 315 0.0 0.0 0.00 0.01 0.01 92 998.6
20171215132910 31 360 1.0 4.0 0.01 0.01 0.01 92 998.6
20171215124910 33 315 2.0 2.0 0.01 0.01 0.01 88 998.6
20171215122910 33 315 1.0 2.0 0.00 0.00 0.00 88 998.6
20171215121910 33 360 1.0 2.0 0.00 0.00 0.00 87 998.6
20171215115910 35 90 0.0 0.0 0.00 0.00 0.00 86 998.6
20171215113910 34 157 1.0 2.0 0.00 0.00 0.00 88 998.6
20171215112910 34 157 0.0 0.0 0.00 0.00 0.00 88 998.6
20171215104910 31 315 1.0 2.0 0.00 0.00 0.00 92 998.6
20171215102910 31 315 0.0 0.0 0.00 0.00 0.00 91 998.6
20171215101910 31 292 0.0 0.0 0.00 0.00 0.00 91 998.6
20171215100910 31 22 0.0 0.0 0.00 0.00 0.00 91 999.6
20171215095910 31 337 1.0 2.0 0.00 0.00 0.00 91 998.6
20171215093910 31 157 0.0 0.0 0.00 0.00 0.00 90 998.6
20171215092910 31 157 0.0 0.0 0.00 0.00 0.00 89 998.6
20171215091910 31 157 0.0 0.0 0.00 0.00 0.00 89 998.6
20171215090910 31 157 0.0 0.0 0.00 0.00 0.00 89 998.6
20171215085909 30 157 0.0 0.0 0.00 0.00 0.00 90 998.6
20171215083910 31 157 0.0 0.0 0.00 0.00 0.00 88 998.6
20171215081910 30 157 0.0 0.0 0.00 0.00 0.00 88 998.6
20171215075914 29 157 0.0 0.0 0.00 0.00 0.00 89 998.6
20171215074914 29 157 0.0 0.0 0.00 0.00 0.00 89 998.6
20171215071914 29 157 0.0 0.0 0.00 0.00 0.00 87 998.6
20171215070914 29 157 0.0 0.0 0.00 0.00 0.00 86 998.6
20171215064914 29 157 0.0 0.0 0.00 0.00 0.00 86 998.6
20171215062914 29 337 0.0 0.0 0.00 0.00 0.00 87 998.6
20171215061914 29 315 3.0 4.0 0.00 0.00 0.00 87 998.6
20171215055914 29 180 0.0 0.0 0.00 0.00 0.00 82 998.6
20171215054914 29 157 1.0 2.0 0.00 0.00 0.00 82 997.6
20171215053914 29 315 0.0 0.0 0.00 0.00 0.00 82 997.6
20171215050914 28 225 1.0 2.0 0.00 0.00 0.00 83 997.6
20171215045914 28 180 2.0 4.0 0.00 0.00 0.00 83 997.6
20171215043914 28 360 5.0 14.0 0.00 0.00 0.00 86 996.6
20171215042914 30 180 2.0 4.0 0.00 0.00 0.00 78 995.6
20171215041914 38 360 9.0 12.0 0.00 0.00 0.00 63 994.6
20171215035914 39 337 9.0 20.0 0.00 0.00 0.00 54 994.6
20171215033913 39 180 14.0 18.0 0.00 0.00 0.00 56 994.6
20171215032913 39 202 17.0 26.0 0.00 0.00 0.00 55 994.6
20171215031913 39 157 16.0 20.0 0.00 0.00 0.00 57 994.6
20171215030914 39 157 13.0 20.0 0.00 0.00 0.00 56 994.6
20171215024913 38 225 8.0 26.0 0.00 0.00 0.00 57 994.6
20171215022913 38 202 7.0 10.0 0.00 0.00 0.00 58 994.6
20171215020913 38 135 9.0 14.0 0.00 0.00 0.00 59 994.6
20171215015913 38 157 10.0 14.0 0.00 0.00 0.00 59 994.6
20171215014913 38 157 5.0 10.0 0.00 0.00 0.00 59 994.6
20171215013913 38 157 7.0 10.0 0.00 0.00 0.00 60 995.6
20171215012913 38 157 8.0 18.0 0.00 0.00 0.00 59 995.6
20171215011913 38 202 7.0 14.0 0.00 0.00 0.00 60 995.6
20171215005913 37 157 5.0 16.0 0.00 0.00 0.00 62 995.6
20171215004913 37 225 9.0 16.0 0.00 0.00 0.00 62 995.6
20171215003913 37 135 14.0 18.0 0.00 0.00 0.00 63 995.6
20171215002913 36 180 10.0 18.0 0.00 0.00 0.00 62 995.6
20171215000913 36 135 20.0 26.0 0.00 0.00 0.00 62 995.6
20171214235913 36 135 25.0 37.0 0.00 0.00 0.00 63 995.6
20171214234913 36 180 12.0 18.0 0.00 0.00 0.00 63 995.6
20171214233913 36 157 10.0 14.0 0.00 0.00 0.00 63 996.6
20171214232913 36 157 14.0 18.0 0.00 0.00 0.00 65 996.6
20171214231913 36 135 13.0 20.0 0.00 0.00 0.00 64 996.6
20171214225913 36 225 22.0 34.0 0.00 0.00 0.00 65 996.6
20171214223912 36 202 18.0 26.0 0.00 0.00 0.00 64 996.6
20171214222913 36 180 9.0 16.0 0.00 0.00 0.00 66 996.6
20171214221912 36 180 15.0 22.0 0.00 0.00 0.00 68 996.6
20171214212912 35 202 14.0 28.0 0.00 0.00 0.00 71 997.6
20171214211912 35 225 9.0 24.0 0.00 0.00 0.00 71 997.6
20171214210912 35 157 12.0 18.0 0.00 0.00 0.00 73 998.6
20171214205912 34 292 4.0 12.0 0.00 0.00 0.00 77 998.6
20171214203912 32 157 15.0 18.0 0.00 0.00 0.00 83 998.6
20171214202912 29 157 7.0 18.0 0.00 0.00 0.00 89 998.6
20171214201912 30 360 3.0 4.0 0.00 0.00 0.00 90 999.6
20171214195912 29 292 0.0 0.0 0.00 0.00 0.00 90 1000.6
20171214192912 29 157 5.0 12.0 0.00 0.00 0.00 91 1000.6
20171214191912 29 45 2.0 4.0 0.00 0.00 0.00 91 1000.6
20171214190912 28 22 5.0 6.0 0.00 0.00 0.00 92 1000.6
20171214185912 28 360 0.0 0.0 0.00 0.00 0.00 91 1000.6
20171214183912 28 157 1.0 2.0 0.00 0.00 0.00 90 1001.6
20171214182912 28 135 1.0 2.0 0.00 0.00 0.00 90 1001.6
20171214181911 28 157 1.0 2.0 0.00 0.00 0.00 90 1001.6
20171214180911 28 157 2.0 2.0 0.00 0.00 0.00 90 1001.6